< < Back
Terminal Aerodrome Forecast


Current Version              Previous Versions:   1  2  3  4  5  6  7  8  9  

Terminal Aerodrome Forecast

511
FTUS42 KCHS 160500
TAFCHS
TAF
KCHS 160522Z 1606/1706 02013G20KT P6SM SCT030 SCT250
     FM161200 03014G24KT P6SM SKC
     FM161800 06012G20KT P6SM SKC
     FM170000 05010KT P6SM SCT030=

Latest METAR

164
SAUS80 KWBC 161900
MTRCHS
METAR KCHS 161856Z 11007KT 10SM CLR 16/M01 A3029 RMK AO2 SLP257
T01561006


USA.gov is the U.S. government's official web portal to all federal, state and local government web resources and services.